createdAt,value
2023-03-28T00:00:12.150Z,80.80
2023-03-28T00:02:41.192Z,80.00
2023-03-28T00:05:11.377Z,80.10
2023-03-28T00:07:40.862Z,81.00
2023-03-28T00:10:12.658Z,80.30
2023-03-28T00:12:41.769Z,80.40
2023-03-28T00:15:12.200Z,80.30
2023-03-28T00:17:41.794Z,80.30
2023-03-28T00:20:14.482Z,80.30
2023-03-28T00:22:44.243Z,80.30
2023-03-28T00:25:14.764Z,80.30
2023-03-28T00:27:43.761Z,80.40
2023-03-28T00:30:14.016Z,80.40
2023-03-28T00:32:43.120Z,80.40
2023-03-28T00:35:12.747Z,80.50
2023-03-28T00:37:42.740Z,80.50
2023-03-28T00:40:14.702Z,80.50
2023-03-28T00:42:44.731Z,80.50
2023-03-28T00:45:14.510Z,80.50
2023-03-28T00:47:47.356Z,80.60
2023-03-28T00:50:20.886Z,80.80
2023-03-28T00:52:55.388Z,80.70
2023-03-28T00:55:32.284Z,80.60
2023-03-28T00:58:01.566Z,80.50
2023-03-28T01:00:32.808Z,80.30
2023-03-28T01:03:04.003Z,80.10
2023-03-28T01:05:35.571Z,80.40
2023-03-28T01:08:13.994Z,80.50
2023-03-28T01:10:45.809Z,80.70
2023-03-28T01:13:18.179Z,80.40
2023-03-28T01:15:51.407Z,80.40
2023-03-28T01:18:22.952Z,80.50
2023-03-28T01:21:48.835Z,81.30
2023-03-28T01:25:02.195Z,81.20
2023-03-28T01:27:39.608Z,81.20
2023-03-28T01:30:37.946Z,80.80
2023-03-28T01:34:35.858Z,81.20
2023-03-28T01:37:33.654Z,81.10
2023-03-28T01:40:18.684Z,80.90
2023-03-28T01:43:06.600Z,80.90
2023-03-28T01:45:48.229Z,80.80
2023-03-28T01:48:34.881Z,80.80
2023-03-28T01:51:12.717Z,80.90
2023-03-28T01:53:48.248Z,80.80
2023-03-28T01:56:26.625Z,80.80
2023-03-28T01:59:07.938Z,81.10
2023-03-28T02:02:05.469Z,81.10
2023-03-28T02:04:37.850Z,81.10
2023-03-28T02:07:08.965Z,80.70
2023-03-28T02:09:46.299Z,81.30
2023-03-28T02:12:42.493Z,81.00
2023-03-28T02:15:22.803Z,80.80
2023-03-28T02:18:20.888Z,80.90
2023-03-28T02:21:02.697Z,80.90
2023-03-28T02:24:00.351Z,81.00
2023-03-28T02:26:49.450Z,80.70
2023-03-28T02:29:42.391Z,80.90
2023-03-28T02:32:43.994Z,81.40
2023-03-28T02:35:13.654Z,80.70
2023-03-28T02:37:54.255Z,80.80
2023-03-28T02:40:53.379Z,81.30
2023-03-28T02:43:48.576Z,81.90
2023-03-28T02:46:37.836Z,81.50
2023-03-28T02:49:25.951Z,81.60
2023-03-28T02:52:09.626Z,81.40
2023-03-28T02:54:49.341Z,81.40
2023-03-28T02:57:37.532Z,81.30
2023-03-28T03:00:16.010Z,81.00
2023-03-28T03:02:49.408Z,81.30
2023-03-28T03:05:22.837Z,81.10
2023-03-28T03:07:52.249Z,81.80
2023-03-28T03:10:22.077Z,81.10
2023-03-28T03:12:51.581Z,81.00
2023-03-28T03:15:22.145Z,80.90
2023-03-28T03:17:55.667Z,81.00
2023-03-28T03:20:34.493Z,81.00
2023-03-28T03:23:05.315Z,81.00
2023-03-28T03:25:37.395Z,81.10
2023-03-28T03:28:18.786Z,81.10
2023-03-28T03:30:50.346Z,81.10
2023-03-28T03:33:25.657Z,81.00
2023-03-28T03:36:01.233Z,80.80
2023-03-28T03:38:30.398Z,80.60
2023-03-28T03:40:59.964Z,80.40
2023-03-28T03:43:32.234Z,80.50
2023-03-28T03:46:04.051Z,81.30
2023-03-28T03:48:33.651Z,80.60
2023-03-28T03:51:03.959Z,80.60
2023-03-28T03:53:35.153Z,80.70
2023-03-28T03:56:10.391Z,80.70
2023-03-28T03:59:08.218Z,80.50
2023-03-28T04:01:41.684Z,80.40
2023-03-28T04:04:48.972Z,80.70
2023-03-28T04:07:24.623Z,81.30
2023-03-28T04:09:56.856Z,80.60
2023-03-28T04:12:28.699Z,80.60
2023-03-28T04:14:58.418Z,81.50
2023-03-28T04:17:41.476Z,80.70
2023-03-28T04:20:18.240Z,80.90
2023-03-28T04:23:09.706Z,80.90
2023-03-28T04:25:42.998Z,81.00
2023-03-28T04:28:19.903Z,81.00
2023-03-28T04:31:00.331Z,81.00
2023-03-28T04:34:06.448Z,81.00
2023-03-28T04:36:41.130Z,80.90
2023-03-28T04:39:11.431Z,80.60
2023-03-28T04:42:05.469Z,80.70
2023-03-28T04:45:14.539Z,80.70
2023-03-28T04:47:46.115Z,80.70
2023-03-28T04:50:24.255Z,81.00
2023-03-28T04:52:53.277Z,81.10
2023-03-28T04:55:22.482Z,80.90
2023-03-28T04:57:52.586Z,80.90
2023-03-28T05:00:25.220Z,80.80
2023-03-28T05:03:25.594Z,80.90
2023-03-28T05:06:08.804Z,80.90
2023-03-28T05:08:38.406Z,80.90
2023-03-28T05:11:08.287Z,80.90
2023-03-28T05:13:38.818Z,81.00
2023-03-28T05:16:16.434Z,81.30
2023-03-28T05:18:46.087Z,80.90
2023-03-28T05:21:17.094Z,81.00
2023-03-28T05:23:51.555Z,81.00
2023-03-28T05:26:23.758Z,80.90
2023-03-28T05:28:53.470Z,81.00
2023-03-28T05:31:26.068Z,81.00
2023-03-28T05:34:08.628Z,81.10
2023-03-28T05:36:46.960Z,81.00
2023-03-28T05:39:25.091Z,81.10
2023-03-28T05:42:00.549Z,81.00
2023-03-28T05:44:29.518Z,81.10
2023-03-28T05:47:17.176Z,81.10
2023-03-28T05:49:46.240Z,81.10
2023-03-28T05:52:16.669Z,81.00
2023-03-28T05:54:50.672Z,80.90
2023-03-28T05:57:23.130Z,80.70
2023-03-28T05:59:52.448Z,81.40
2023-03-28T06:02:25.191Z,80.70
2023-03-28T06:05:00.291Z,80.80
2023-03-28T06:07:41.418Z,80.80
2023-03-28T06:10:15.794Z,81.00
2023-03-28T06:12:54.726Z,81.00
2023-03-28T06:15:28.382Z,81.00
2023-03-28T06:17:58.225Z,81.10
2023-03-28T06:20:27.236Z,81.40
2023-03-28T06:22:59.355Z,81.50
2023-03-28T06:25:28.501Z,81.70
2023-03-28T06:27:57.965Z,81.70
2023-03-28T06:30:27.134Z,81.80
2023-03-28T06:32:56.955Z,81.90
2023-03-28T06:35:26.079Z,82.10
2023-03-28T06:37:55.118Z,82.20
2023-03-28T06:40:29.471Z,83.10
2023-03-28T06:42:59.217Z,82.40
2023-03-28T06:45:47.874Z,82.40
2023-03-28T06:48:17.524Z,82.70
2023-03-28T06:51:09.893Z,82.80
2023-03-28T06:53:40.207Z,82.80
2023-03-28T06:56:11.884Z,82.90
2023-03-28T06:58:43.117Z,83.00
2023-03-28T07:01:17.044Z,83.00
2023-03-28T07:03:52.532Z,83.20
2023-03-28T07:06:26.764Z,83.40
2023-03-28T07:08:58.268Z,83.80
2023-03-28T07:11:37.760Z,84.10
2023-03-28T07:14:06.870Z,84.20
2023-03-28T07:16:35.960Z,84.50
2023-03-28T07:19:05.638Z,84.70
2023-03-28T07:21:38.050Z,85.00
2023-03-28T07:24:10.072Z,85.20
2023-03-28T07:27:01.260Z,85.30
2023-03-28T07:29:41.241Z,85.40
2023-03-28T07:35:00.382Z,85.90
2023-03-28T07:37:30.228Z,86.00
2023-03-28T07:40:15.329Z,86.20
2023-03-28T07:42:49.878Z,86.40
2023-03-28T07:45:19.085Z,86.50
2023-03-28T07:47:48.147Z,86.80
2023-03-28T07:50:17.811Z,87.70
2023-03-28T07:52:49.797Z,87.20
2023-03-28T07:55:18.879Z,87.90
2023-03-28T07:57:53.644Z,87.40
2023-03-28T08:00:28.968Z,87.60
2023-03-28T08:03:19.253Z,87.60
2023-03-28T08:05:51.713Z,87.80
2023-03-28T08:08:23.304Z,88.40
2023-03-28T08:11:16.426Z,87.50
2023-03-28T08:13:47.331Z,87.50
2023-03-28T08:16:24.282Z,87.20
2023-03-28T08:19:09.826Z,87.80
2023-03-28T08:21:49.639Z,86.80
2023-03-28T08:24:28.871Z,86.50
2023-03-28T08:27:07.990Z,86.30
2023-03-28T08:29:38.476Z,86.20
2023-03-28T08:32:08.314Z,86.70
2023-03-28T08:34:38.533Z,86.00
2023-03-28T08:37:14.072Z,85.90
2023-03-28T08:39:48.893Z,85.80
2023-03-28T08:42:37.413Z,85.80
2023-03-28T08:45:43.400Z,85.60
2023-03-28T08:48:22.515Z,84.80
2023-03-28T08:50:56.797Z,85.50
2023-03-28T08:53:35.370Z,85.40
2023-03-28T08:56:07.786Z,86.00
2023-03-28T08:58:47.656Z,85.30
2023-03-28T09:01:22.225Z,84.70
2023-03-28T09:03:51.896Z,85.10
2023-03-28T09:06:30.895Z,85.50
2023-03-28T09:09:35.865Z,85.20
2023-03-28T09:12:54.107Z,84.40
2023-03-28T09:15:47.905Z,85.00
2023-03-28T09:19:03.675Z,84.90
2023-03-28T09:22:12.441Z,84.60
2023-03-28T09:24:59.219Z,84.30
2023-03-28T09:27:37.665Z,84.30
2023-03-28T09:30:20.799Z,84.30
2023-03-28T09:32:58.366Z,83.20
2023-03-28T09:35:32.174Z,83.60
2023-03-28T09:38:06.690Z,83.50
2023-03-28T09:40:41.752Z,83.00
2023-03-28T09:43:27.784Z,82.50
2023-03-28T09:46:31.591Z,81.40
2023-03-28T09:49:26.784Z,80.80
2023-03-28T09:52:16.846Z,81.70
2023-03-28T09:54:46.645Z,80.50
2023-03-28T09:57:15.828Z,82.40
2023-03-28T09:59:50.797Z,81.60
2023-03-28T10:02:29.821Z,81.10
2023-03-28T10:05:04.808Z,80.30
2023-03-28T10:08:02.023Z,81.10
2023-03-28T10:10:45.569Z,81.00
2023-03-28T10:13:19.656Z,81.40
2023-03-28T10:15:52.334Z,81.90
2023-03-28T10:18:41.578Z,80.50
2023-03-28T10:21:25.809Z,80.60
2023-03-28T10:24:09.421Z,78.70
2023-03-28T10:26:40.001Z,79.80
2023-03-28T10:29:14.829Z,79.30
2023-03-28T10:31:49.557Z,78.00
2023-03-28T10:34:41.470Z,77.40
2023-03-28T10:37:27.402Z,77.90
2023-03-28T10:40:31.283Z,75.50
2023-03-28T10:43:14.405Z,77.10
2023-03-28T10:46:18.884Z,78.20
2023-03-28T10:49:15.906Z,77.80
2023-03-28T10:51:49.369Z,77.40
2023-03-28T10:54:43.209Z,77.50
2023-03-28T10:57:33.194Z,76.50
2023-03-28T11:00:09.647Z,75.90
2023-03-28T11:03:20.483Z,77.60
2023-03-28T11:06:08.900Z,78.20
2023-03-28T11:08:52.806Z,77.20
2023-03-28T11:11:45.448Z,75.50
2023-03-28T11:14:32.600Z,75.10
2023-03-28T11:17:14.272Z,76.40
2023-03-28T11:20:18.434Z,76.10
2023-03-28T11:23:11.592Z,73.60
2023-03-28T11:25:57.785Z,73.90
2023-03-28T11:29:19.176Z,72.30
2023-03-28T11:32:04.509Z,70.80
2023-03-28T11:34:39.215Z,71.20
2023-03-28T11:37:17.599Z,72.80
2023-03-28T11:39:53.302Z,72.50
2023-03-28T11:42:38.845Z,72.50
2023-03-28T11:45:30.680Z,71.80
2023-03-28T11:48:12.782Z,71.00
2023-03-28T11:50:54.646Z,70.60
2023-03-28T11:53:44.176Z,70.20
2023-03-28T11:56:27.977Z,70.30
2023-03-28T11:59:12.733Z,69.70
2023-03-28T12:01:47.561Z,70.10
2023-03-28T12:04:22.416Z,69.10
2023-03-28T12:07:06.797Z,68.90
2023-03-28T12:10:00.468Z,68.20
2023-03-28T12:12:34.119Z,68.60
2023-03-28T12:15:07.180Z,69.30
2023-03-28T12:18:08.116Z,69.20
2023-03-28T12:20:43.920Z,69.60
2023-03-28T12:23:38.977Z,69.60
2023-03-28T12:26:31.443Z,70.00
2023-03-28T12:29:10.204Z,70.00
2023-03-28T12:31:46.493Z,70.20
2023-03-28T12:34:33.518Z,69.50
2023-03-28T12:37:44.358Z,69.00
2023-03-28T12:40:25.029Z,69.50
2023-03-28T12:43:00.226Z,68.50
2023-03-28T12:45:32.605Z,69.20
2023-03-28T12:48:07.404Z,69.10
2023-03-28T12:50:50.758Z,69.40
2023-03-28T12:53:23.857Z,68.90
2023-03-28T12:55:53.923Z,69.60
2023-03-28T12:58:28.951Z,69.30
2023-03-28T13:01:26.596Z,68.40
2023-03-28T13:04:22.909Z,68.70
2023-03-28T13:07:11.062Z,68.60
2023-03-28T13:09:57.133Z,68.60
2023-03-28T13:12:37.817Z,68.30
2023-03-28T13:15:32.825Z,68.50
2023-03-28T13:18:31.498Z,69.00
2023-03-28T13:21:04.362Z,69.80
2023-03-28T13:23:38.421Z,69.20
2023-03-28T13:26:08.328Z,68.60
2023-03-28T13:28:44.654Z,68.70
2023-03-28T13:31:27.368Z,68.10
2023-03-28T13:34:03.904Z,68.10
2023-03-28T13:36:34.709Z,69.00
2023-03-28T13:39:23.635Z,68.70
2023-03-28T13:42:01.209Z,68.90
2023-03-28T13:44:42.684Z,69.30
2023-03-28T13:47:28.794Z,69.20
2023-03-28T13:50:04.163Z,69.20
2023-03-28T13:52:33.606Z,69.00
2023-03-28T13:55:16.607Z,69.00
2023-03-28T13:57:49.569Z,69.00
2023-03-28T14:00:24.228Z,69.40
2023-03-28T14:02:55.416Z,69.20
2023-03-28T14:05:27.137Z,68.80
2023-03-28T14:08:04.247Z,68.90
2023-03-28T14:10:37.879Z,68.80
2023-03-28T14:13:12.136Z,69.00
2023-03-28T14:15:43.604Z,68.80
2023-03-28T14:18:19.003Z,69.20
2023-03-28T14:20:48.275Z,68.80
2023-03-28T14:23:30.717Z,68.90
2023-03-28T14:26:03.988Z,68.40
2023-03-28T14:28:33.981Z,68.50
2023-03-28T14:31:03.391Z,69.80
2023-03-28T14:33:37.278Z,69.10
2023-03-28T14:36:07.851Z,68.90
2023-03-28T14:38:39.593Z,69.10
2023-03-28T14:41:21.243Z,69.40
2023-03-28T14:43:55.224Z,69.10
2023-03-28T14:46:27.795Z,69.00
2023-03-28T14:49:01.474Z,69.00
2023-03-28T14:51:41.030Z,68.90
2023-03-28T14:54:16.715Z,68.90
2023-03-28T14:56:47.928Z,68.40
2023-03-28T14:59:20.196Z,69.30
2023-03-28T15:01:51.947Z,69.00
2023-03-28T15:04:23.062Z,68.70
2023-03-28T15:06:56.492Z,68.80
2023-03-28T15:09:33.379Z,68.40
2023-03-28T15:12:09.258Z,67.80
2023-03-28T15:14:43.328Z,68.00
2023-03-28T15:17:19.160Z,67.60
2023-03-28T15:19:52.515Z,68.00
2023-03-28T15:22:27.653Z,68.10
2023-03-28T15:24:58.900Z,68.40
2023-03-28T15:27:33.654Z,68.40
2023-03-28T15:30:08.047Z,67.90
2023-03-28T15:32:37.166Z,68.00
2023-03-28T15:35:25.439Z,68.50
2023-03-28T15:38:03.273Z,68.40
2023-03-28T15:40:40.751Z,68.20
2023-03-28T15:43:36.495Z,68.90
2023-03-28T15:46:11.691Z,68.60
2023-03-28T15:48:43.281Z,68.30
2023-03-28T15:51:16.733Z,68.30
2023-03-28T15:53:48.246Z,68.40
2023-03-28T15:56:24.837Z,68.30
2023-03-28T15:59:04.351Z,68.60
2023-03-28T16:01:34.436Z,68.20
2023-03-28T16:04:24.940Z,68.40
2023-03-28T16:07:05.965Z,68.90
2023-03-28T16:09:35.280Z,68.40
2023-03-28T16:12:05.850Z,69.60
2023-03-28T16:14:48.837Z,68.50
2023-03-28T16:17:37.030Z,68.10
2023-03-28T16:20:20.832Z,68.20
2023-03-28T16:22:51.213Z,68.80
2023-03-28T16:25:20.255Z,68.50
2023-03-28T16:27:49.301Z,68.50
2023-03-28T16:30:24.341Z,68.40
2023-03-28T16:32:53.438Z,68.50
2023-03-28T16:35:22.880Z,68.50
2023-03-28T16:37:52.000Z,69.20
2023-03-28T16:40:21.030Z,68.80
2023-03-28T16:42:51.038Z,68.60
2023-03-28T16:45:21.596Z,68.80
2023-03-28T16:47:51.006Z,68.10
2023-03-28T16:50:23.350Z,68.00
2023-03-28T16:52:52.498Z,68.00
2023-03-28T16:55:21.718Z,67.80
2023-03-28T16:57:50.774Z,67.50
2023-03-28T17:00:24.665Z,67.40
2023-03-28T17:02:53.886Z,67.40
2023-03-28T17:05:22.983Z,67.30
2023-03-28T17:07:52.101Z,67.20
2023-03-28T17:10:21.129Z,67.20
2023-03-28T17:12:53.110Z,67.00
2023-03-28T17:15:23.539Z,67.20
2023-03-28T17:17:52.600Z,67.10
2023-03-28T17:20:21.805Z,67.40
2023-03-28T17:22:50.844Z,68.10
2023-03-28T17:25:20.344Z,67.20
2023-03-28T17:27:49.560Z,67.00
2023-03-28T17:30:18.797Z,67.20
2023-03-28T17:32:49.508Z,67.60
2023-03-28T17:35:19.236Z,67.80
2023-03-28T17:37:52.674Z,67.60
2023-03-28T17:40:21.810Z,67.60
2023-03-28T17:42:50.852Z,68.70
2023-03-28T17:45:19.900Z,68.10
2023-03-28T17:47:54.605Z,68.00
2023-03-28T17:50:25.317Z,68.20
2023-03-28T17:52:54.353Z,68.30
2023-03-28T17:55:23.434Z,68.40
2023-03-28T17:57:52.474Z,68.40
2023-03-28T18:00:22.760Z,68.40
2023-03-28T18:02:53.265Z,68.40
2023-03-28T18:05:42.182Z,68.50
2023-03-28T18:08:11.567Z,69.10
2023-03-28T18:10:41.442Z,68.60
2023-03-28T18:13:10.560Z,68.70
2023-03-28T18:15:40.937Z,68.60
2023-03-28T18:18:12.763Z,68.60
2023-03-28T18:20:43.772Z,68.70
2023-03-28T18:23:12.754Z,68.90
2023-03-28T18:25:42.590Z,69.00
2023-03-28T18:28:11.883Z,69.00
2023-03-28T18:30:42.136Z,69.10
2023-03-28T18:33:12.719Z,69.20
2023-03-28T18:35:42.064Z,69.20
2023-03-28T18:38:13.986Z,69.30
2023-03-28T18:40:43.675Z,69.30
2023-03-28T18:43:12.724Z,69.40
2023-03-28T18:45:41.884Z,69.20
2023-03-28T18:48:13.173Z,69.20
2023-03-28T18:50:42.292Z,70.00
2023-03-28T18:53:12.143Z,69.40
2023-03-28T18:55:42.791Z,69.80
2023-03-28T18:58:12.038Z,69.40
2023-03-28T19:00:41.886Z,69.30
2023-03-28T19:03:17.730Z,69.40
2023-03-28T19:05:46.910Z,69.40
2023-03-28T19:08:15.922Z,69.40
2023-03-28T19:10:47.274Z,69.50
2023-03-28T19:13:16.265Z,69.50
2023-03-28T19:15:45.280Z,69.50
2023-03-28T19:18:15.949Z,69.80
2023-03-28T19:20:50.500Z,69.70
2023-03-28T19:23:19.476Z,69.60
2023-03-28T19:25:49.122Z,69.60
2023-03-28T19:28:19.189Z,69.60
2023-03-28T19:30:48.303Z,69.90
2023-03-28T19:33:18.725Z,70.10
2023-03-28T19:35:47.798Z,70.00
2023-03-28T19:38:16.770Z,70.10
2023-03-28T19:40:46.096Z,70.20
2023-03-28T19:43:20.933Z,70.20
2023-03-28T19:45:49.904Z,70.40
2023-03-28T19:48:20.432Z,70.50
2023-03-28T19:50:50.754Z,70.50
2023-03-28T19:53:19.775Z,70.70
2023-03-28T19:55:53.242Z,70.70
2023-03-28T19:58:24.016Z,71.10
2023-03-28T20:00:53.512Z,70.90
2023-03-28T20:03:26.739Z,71.50
2023-03-28T20:05:55.744Z,70.90
2023-03-28T20:08:24.737Z,70.80
2023-03-28T20:10:53.783Z,70.80
2023-03-28T20:13:22.786Z,71.00
2023-03-28T20:15:52.234Z,71.10
2023-03-28T20:18:26.206Z,71.10
2023-03-28T20:20:57.973Z,71.30
2023-03-28T20:23:29.737Z,71.10
2023-03-28T20:25:59.655Z,71.10
2023-03-28T20:28:32.066Z,71.10
2023-03-28T20:31:01.465Z,71.20
2023-03-28T20:33:32.380Z,71.20
2023-03-28T20:36:01.820Z,71.10
2023-03-28T20:38:33.906Z,71.30
2023-03-28T20:41:03.159Z,71.30
2023-03-28T20:43:36.818Z,71.10
2023-03-28T20:46:06.260Z,71.20
2023-03-28T20:48:36.845Z,71.40
2023-03-28T20:51:14.311Z,71.50
2023-03-28T20:53:45.369Z,71.50
2023-03-28T20:56:14.895Z,71.50
2023-03-28T20:58:45.287Z,72.30
2023-03-28T21:01:16.624Z,71.60
2023-03-28T21:03:48.267Z,71.70
2023-03-28T21:06:19.523Z,71.90
2023-03-28T21:08:53.869Z,71.90
2023-03-28T21:11:26.438Z,71.90
2023-03-28T21:13:57.723Z,71.90
2023-03-28T21:16:27.793Z,71.90
2023-03-28T21:18:58.350Z,71.90
2023-03-28T21:21:29.841Z,71.90
2023-03-28T21:23:59.008Z,72.40
2023-03-28T21:26:29.044Z,71.20
2023-03-28T21:28:58.740Z,71.30
2023-03-28T21:31:30.071Z,71.20
2023-03-28T21:34:00.992Z,71.20
2023-03-28T21:36:30.376Z,71.30
2023-03-28T21:39:02.634Z,71.50
2023-03-28T21:41:31.781Z,71.60
2023-03-28T21:44:03.794Z,71.80
2023-03-28T21:46:32.934Z,72.00
2023-03-28T21:49:03.435Z,72.10
2023-03-28T21:51:35.957Z,72.30
2023-03-28T21:54:05.986Z,72.30
2023-03-28T21:56:35.655Z,72.40
2023-03-28T21:59:04.606Z,72.30
2023-03-28T22:01:33.855Z,72.30
2023-03-28T22:04:22.522Z,72.30
2023-03-28T22:06:51.493Z,72.30
2023-03-28T22:09:21.980Z,72.30
2023-03-28T22:11:50.984Z,72.20
2023-03-28T22:14:20.174Z,72.40
2023-03-28T22:16:49.233Z,72.60
2023-03-28T22:19:18.823Z,72.70
2023-03-28T22:21:49.596Z,72.60
2023-03-28T22:24:18.712Z,72.80
2023-03-28T22:26:49.917Z,73.60
2023-03-28T22:29:19.429Z,72.90
2023-03-28T22:31:48.473Z,72.90
2023-03-28T22:34:17.781Z,72.90
2023-03-28T22:36:49.466Z,73.20
2023-03-28T22:39:18.799Z,73.20
2023-03-28T22:41:47.768Z,73.00
2023-03-28T22:44:21.357Z,73.00
2023-03-28T22:46:51.268Z,73.30
2023-03-28T22:49:22.375Z,72.80
2023-03-28T22:51:56.198Z,73.10
2023-03-28T22:54:25.204Z,72.90
2023-03-28T22:56:54.281Z,73.80
2023-03-28T22:59:23.343Z,73.10
2023-03-28T23:01:52.705Z,73.90
2023-03-28T23:04:23.539Z,73.20
2023-03-28T23:06:53.922Z,73.30
2023-03-28T23:09:27.859Z,73.40
2023-03-28T23:11:57.197Z,73.40
2023-03-28T23:14:26.339Z,74.10
2023-03-28T23:16:55.340Z,73.50
2023-03-28T23:19:24.317Z,73.70
2023-03-28T23:21:55.180Z,73.70
2023-03-28T23:24:26.233Z,73.90
2023-03-28T23:26:55.432Z,73.90
2023-03-28T23:29:24.703Z,74.10
2023-03-28T23:31:53.739Z,74.20
2023-03-28T23:34:25.044Z,74.20
2023-03-28T23:36:58.063Z,74.20
2023-03-28T23:39:27.043Z,74.40
2023-03-28T23:41:56.229Z,74.30
2023-03-28T23:44:25.418Z,74.30
2023-03-28T23:46:56.376Z,75.10
2023-03-28T23:49:25.609Z,75.20
2023-03-28T23:51:54.555Z,74.50
2023-03-28T23:54:25.895Z,74.50
2023-03-28T23:56:54.898Z,74.60
2023-03-28T23:59:25.246Z,74.60
